sensor_id;sensor_type;location;lat;lon;timestamp;P1;durP1;ratioP1;P2;durP2;ratioP2
64063;SDS011;50314;50.618;10.642;2023-04-19T00:01:19;2.08;;;1.90;;
64063;SDS011;50314;50.618;10.642;2023-04-19T00:03:45;2.33;;;2.10;;
64063;SDS011;50314;50.618;10.642;2023-04-19T00:06:10;2.42;;;2.05;;
64063;SDS011;50314;50.618;10.642;2023-04-19T00:08:39;2.10;;;1.90;;
64063;SDS011;50314;50.618;10.642;2023-04-19T00:11:06;1.83;;;1.73;;
64063;SDS011;50314;50.618;10.642;2023-04-19T00:13:32;2.67;;;2.03;;
64063;SDS011;50314;50.618;10.642;2023-04-19T00:15:57;2.00;;;1.80;;
64063;SDS011;50314;50.618;10.642;2023-04-19T00:18:23;2.45;;;1.98;;
64063;SDS011;50314;50.618;10.642;2023-04-19T00:20:48;2.88;;;2.28;;
64063;SDS011;50314;50.618;10.642;2023-04-19T00:23:14;2.13;;;1.92;;
64063;SDS011;50314;50.618;10.642;2023-04-19T00:25:39;2.25;;;2.05;;
64063;SDS011;50314;50.618;10.642;2023-04-19T00:28:05;2.20;;;2.00;;
64063;SDS011;50314;50.618;10.642;2023-04-19T00:30:30;2.75;;;2.03;;
64063;SDS011;50314;50.618;10.642;2023-04-19T00:32:56;2.00;;;1.77;;
64063;SDS011;50314;50.618;10.642;2023-04-19T00:35:21;2.42;;;2.20;;
64063;SDS011;50314;50.618;10.642;2023-04-19T00:37:47;2.22;;;2.03;;
64063;SDS011;50314;50.618;10.642;2023-04-19T00:40:12;2.08;;;1.83;;
64063;SDS011;50314;50.618;10.642;2023-04-19T00:42:38;2.35;;;2.15;;
64063;SDS011;50314;50.618;10.642;2023-04-19T00:45:03;2.70;;;2.50;;
64063;SDS011;50314;50.618;10.642;2023-04-19T00:47:29;2.40;;;1.98;;
64063;SDS011;50314;50.618;10.642;2023-04-19T00:49:55;1.98;;;1.77;;
64063;SDS011;50314;50.618;10.642;2023-04-19T00:52:20;2.30;;;2.00;;
64063;SDS011;50314;50.618;10.642;2023-04-19T00:54:47;2.67;;;2.25;;
64063;SDS011;50314;50.618;10.642;2023-04-19T00:57:13;2.65;;;2.15;;
64063;SDS011;50314;50.618;10.642;2023-04-19T00:59:40;2.78;;;2.00;;
64063;SDS011;50314;50.618;10.642;2023-04-19T01:02:06;2.20;;;2.00;;
64063;SDS011;50314;50.618;10.642;2023-04-19T01:04:33;2.28;;;2.05;;
64063;SDS011;50314;50.618;10.642;2023-04-19T01:06:58;2.00;;;1.90;;
64063;SDS011;50314;50.618;10.642;2023-04-19T01:09:23;2.03;;;1.83;;
64063;SDS011;50314;50.618;10.642;2023-04-19T01:11:49;2.67;;;2.03;;
64063;SDS011;50314;50.618;10.642;2023-04-19T01:14:15;2.53;;;2.33;;
64063;SDS011;50314;50.618;10.642;2023-04-19T01:16:40;2.63;;;2.28;;
64063;SDS011;50314;50.618;10.642;2023-04-19T01:19:06;2.28;;;2.05;;
64063;SDS011;50314;50.618;10.642;2023-04-19T01:21:31;2.53;;;2.33;;
64063;SDS011;50314;50.618;10.642;2023-04-19T01:23:57;2.40;;;2.20;;
64063;SDS011;50314;50.618;10.642;2023-04-19T01:26:22;1.85;;;1.75;;
64063;SDS011;50314;50.618;10.642;2023-04-19T01:28:48;2.10;;;1.90;;
64063;SDS011;50314;50.618;10.642;2023-04-19T01:31:14;2.17;;;1.98;;
64063;SDS011;50314;50.618;10.642;2023-04-19T01:33:39;2.50;;;2.17;;
64063;SDS011;50314;50.618;10.642;2023-04-19T01:36:04;1.85;;;1.73;;
64063;SDS011;50314;50.618;10.642;2023-04-19T01:38:30;2.60;;;2.40;;
64063;SDS011;50314;50.618;10.642;2023-04-19T01:40:56;2.10;;;1.90;;
64063;SDS011;50314;50.618;10.642;2023-04-19T01:43:21;2.65;;;2.25;;
64063;SDS011;50314;50.618;10.642;2023-04-19T01:45:47;2.28;;;2.08;;
64063;SDS011;50314;50.618;10.642;2023-04-19T01:48:12;2.05;;;1.90;;
64063;SDS011;50314;50.618;10.642;2023-04-19T01:50:37;3.53;;;2.70;;
64063;SDS011;50314;50.618;10.642;2023-04-19T01:53:03;1.90;;;1.60;;
64063;SDS011;50314;50.618;10.642;2023-04-19T01:55:28;2.47;;;2.20;;
64063;SDS011;50314;50.618;10.642;2023-04-19T01:57:54;2.10;;;1.90;;
64063;SDS011;50314;50.618;10.642;2023-04-19T02:00:20;2.58;;;2.38;;
64063;SDS011;50314;50.618;10.642;2023-04-19T02:02:46;2.10;;;1.88;;
64063;SDS011;50314;50.618;10.642;2023-04-19T02:05:11;2.65;;;1.92;;
64063;SDS011;50314;50.618;10.642;2023-04-19T02:07:37;2.53;;;2.33;;
64063;SDS011;50314;50.618;10.642;2023-04-19T02:10:03;2.05;;;1.73;;
64063;SDS011;50314;50.618;10.642;2023-04-19T02:14:56;2.10;;;1.90;;
64063;SDS011;50314;50.618;10.642;2023-04-19T02:17:25;2.53;;;2.30;;
64063;SDS011;50314;50.618;10.642;2023-04-19T02:19:50;2.40;;;2.13;;
64063;SDS011;50314;50.618;10.642;2023-04-19T02:22:16;1.95;;;1.83;;
64063;SDS011;50314;50.618;10.642;2023-04-19T02:24:45;2.78;;;2.58;;
64063;SDS011;50314;50.618;10.642;2023-04-19T02:27:11;2.25;;;2.10;;
64063;SDS011;50314;50.618;10.642;2023-04-19T02:29:37;1.90;;;1.80;;
64063;SDS011;50314;50.618;10.642;2023-04-19T02:32:03;2.15;;;1.95;;
64063;SDS011;50314;50.618;10.642;2023-04-19T02:36:56;2.75;;;2.55;;
64063;SDS011;50314;50.618;10.642;2023-04-19T02:39:22;2.10;;;1.90;;
64063;SDS011;50314;50.618;10.642;2023-04-19T02:41:47;2.35;;;2.15;;
64063;SDS011;50314;50.618;10.642;2023-04-19T02:44:13;3.35;;;3.15;;
64063;SDS011;50314;50.618;10.642;2023-04-19T02:46:38;3.35;;;3.08;;
64063;SDS011;50314;50.618;10.642;2023-04-19T02:49:04;2.25;;;2.08;;
64063;SDS011;50314;50.618;10.642;2023-04-19T02:51:29;2.30;;;2.10;;
64063;SDS011;50314;50.618;10.642;2023-04-19T02:53:55;2.88;;;2.60;;
64063;SDS011;50314;50.618;10.642;2023-04-19T02:56:20;2.70;;;2.13;;
64063;SDS011;50314;50.618;10.642;2023-04-19T02:58:46;3.03;;;2.83;;
64063;SDS011;50314;50.618;10.642;2023-04-19T03:01:11;3.38;;;3.13;;
64063;SDS011;50314;50.618;10.642;2023-04-19T03:03:37;2.50;;;2.30;;
64063;SDS011;50314;50.618;10.642;2023-04-19T03:06:02;2.28;;;2.08;;
64063;SDS011;50314;50.618;10.642;2023-04-19T03:08:28;2.97;;;2.70;;
64063;SDS011;50314;50.618;10.642;2023-04-19T03:10:53;2.78;;;2.58;;
64063;SDS011;50314;50.618;10.642;2023-04-19T03:13:19;2.60;;;2.40;;
64063;SDS011;50314;50.618;10.642;2023-04-19T03:15:45;2.92;;;2.72;;
64063;SDS011;50314;50.618;10.642;2023-04-19T03:18:11;2.70;;;2.50;;
64063;SDS011;50314;50.618;10.642;2023-04-19T03:20:36;3.03;;;2.72;;
64063;SDS011;50314;50.618;10.642;2023-04-19T03:23:02;2.72;;;2.40;;
64063;SDS011;50314;50.618;10.642;2023-04-19T03:25:27;2.35;;;2.10;;
64063;SDS011;50314;50.618;10.642;2023-04-19T03:27:53;2.60;;;2.38;;
64063;SDS011;50314;50.618;10.642;2023-04-19T03:30:18;2.90;;;2.58;;
64063;SDS011;50314;50.618;10.642;2023-04-19T03:32:45;2.40;;;2.20;;
64063;SDS011;50314;50.618;10.642;2023-04-19T03:35:11;2.60;;;2.28;;
64063;SDS011;50314;50.618;10.642;2023-04-19T03:37:36;2.83;;;2.63;;
64063;SDS011;50314;50.618;10.642;2023-04-19T03:40:02;2.45;;;2.20;;
64063;SDS011;50314;50.618;10.642;2023-04-19T03:42:28;2.47;;;2.28;;
64063;SDS011;50314;50.618;10.642;2023-04-19T03:44:53;2.60;;;2.33;;
64063;SDS011;50314;50.618;10.642;2023-04-19T03:47:19;2.40;;;2.13;;
64063;SDS011;50314;50.618;10.642;2023-04-19T03:49:44;2.88;;;2.55;;
64063;SDS011;50314;50.618;10.642;2023-04-19T03:52:10;3.03;;;2.70;;
64063;SDS011;50314;50.618;10.642;2023-04-19T03:54:35;3.15;;;2.95;;
64063;SDS011;50314;50.618;10.642;2023-04-19T03:57:01;2.50;;;2.30;;
64063;SDS011;50314;50.618;10.642;2023-04-19T03:59:26;2.63;;;2.42;;
64063;SDS011;50314;50.618;10.642;2023-04-19T04:01:51;2.75;;;2.45;;
64063;SDS011;50314;50.618;10.642;2023-04-19T04:04:17;2.28;;;2.08;;
64063;SDS011;50314;50.618;10.642;2023-04-19T04:06:42;2.72;;;2.50;;
64063;SDS011;50314;50.618;10.642;2023-04-19T04:09:08;2.33;;;2.10;;
64063;SDS011;50314;50.618;10.642;2023-04-19T04:11:33;2.67;;;2.38;;
64063;SDS011;50314;50.618;10.642;2023-04-19T04:13:59;2.58;;;2.38;;
64063;SDS011;50314;50.618;10.642;2023-04-19T04:16:24;2.38;;;2.17;;
64063;SDS011;50314;50.618;10.642;2023-04-19T04:18:50;2.80;;;2.47;;
64063;SDS011;50314;50.618;10.642;2023-04-19T04:21:15;2.33;;;2.13;;
64063;SDS011;50314;50.618;10.642;2023-04-19T04:23:41;2.50;;;2.20;;
64063;SDS011;50314;50.618;10.642;2023-04-19T04:26:06;2.45;;;2.25;;
64063;SDS011;50314;50.618;10.642;2023-04-19T04:28:34;2.50;;;2.13;;
64063;SDS011;50314;50.618;10.642;2023-04-19T04:30:59;2.47;;;2.13;;
64063;SDS011;50314;50.618;10.642;2023-04-19T04:33:26;2.40;;;2.20;;
64063;SDS011;50314;50.618;10.642;2023-04-19T04:35:52;2.47;;;2.28;;
64063;SDS011;50314;50.618;10.642;2023-04-19T04:38:19;2.70;;;2.50;;
64063;SDS011;50314;50.618;10.642;2023-04-19T04:40:49;3.03;;;2.72;;
64063;SDS011;50314;50.618;10.642;2023-04-19T04:43:17;2.47;;;2.28;;
64063;SDS011;50314;50.618;10.642;2023-04-19T04:45:45;2.92;;;2.72;;
64063;SDS011;50314;50.618;10.642;2023-04-19T04:48:10;2.65;;;2.45;;
64063;SDS011;50314;50.618;10.642;2023-04-19T04:50:36;3.65;;;3.38;;
64063;SDS011;50314;50.618;10.642;2023-04-19T04:53:01;2.80;;;2.50;;
64063;SDS011;50314;50.618;10.642;2023-04-19T04:55:27;2.75;;;2.50;;
64063;SDS011;50314;50.618;10.642;2023-04-19T04:57:52;2.97;;;2.78;;
64063;SDS011;50314;50.618;10.642;2023-04-19T05:00:18;2.50;;;2.30;;
64063;SDS011;50314;50.618;10.642;2023-04-19T05:02:43;2.80;;;2.60;;
64063;SDS011;50314;50.618;10.642;2023-04-19T05:05:09;3.60;;;1.95;;
64063;SDS011;50314;50.618;10.642;2023-04-19T05:07:37;2.95;;;2.65;;
64063;SDS011;50314;50.618;10.642;2023-04-19T05:10:03;2.38;;;2.17;;
64063;SDS011;50314;50.618;10.642;2023-04-19T05:12:29;2.55;;;2.35;;
64063;SDS011;50314;50.618;10.642;2023-04-19T05:14:54;2.40;;;2.20;;
64063;SDS011;50314;50.618;10.642;2023-04-19T05:17:20;2.33;;;2.13;;
64063;SDS011;50314;50.618;10.642;2023-04-19T05:19:45;2.42;;;2.22;;
64063;SDS011;50314;50.618;10.642;2023-04-19T05:22:11;2.50;;;1.60;;
64063;SDS011;50314;50.618;10.642;2023-04-19T05:24:36;2.63;;;2.42;;
64063;SDS011;50314;50.618;10.642;2023-04-19T05:27:02;2.42;;;2.22;;
64063;SDS011;50314;50.618;10.642;2023-04-19T05:29:27;2.30;;;2.10;;
64063;SDS011;50314;50.618;10.642;2023-04-19T05:31:53;2.83;;;2.58;;
64063;SDS011;50314;50.618;10.642;2023-04-19T05:34:18;2.13;;;1.92;;
64063;SDS011;50314;50.618;10.642;2023-04-19T05:36:43;2.65;;;2.45;;
64063;SDS011;50314;50.618;10.642;2023-04-19T05:39:09;2.50;;;2.30;;
64063;SDS011;50314;50.618;10.642;2023-04-19T05:41:34;2.58;;;2.38;;
64063;SDS011;50314;50.618;10.642;2023-04-19T05:44:00;2.75;;;2.35;;
64063;SDS011;50314;50.618;10.642;2023-04-19T05:46:25;2.50;;;2.25;;
64063;SDS011;50314;50.618;10.642;2023-04-19T05:48:51;2.47;;;2.28;;
64063;SDS011;50314;50.618;10.642;2023-04-19T05:51:16;2.08;;;1.70;;
64063;SDS011;50314;50.618;10.642;2023-04-19T05:53:43;2.90;;;2.60;;
64063;SDS011;50314;50.618;10.642;2023-04-19T05:56:09;2.53;;;2.33;;
64063;SDS011;50314;50.618;10.642;2023-04-19T05:58:34;2.20;;;1.85;;
64063;SDS011;50314;50.618;10.642;2023-04-19T06:01:00;2.70;;;2.50;;
64063;SDS011;50314;50.618;10.642;2023-04-19T06:03:26;2.63;;;2.40;;
64063;SDS011;50314;50.618;10.642;2023-04-19T06:05:52;2.20;;;2.00;;
64063;SDS011;50314;50.618;10.642;2023-04-19T06:08:17;2.33;;;2.03;;
64063;SDS011;50314;50.618;10.642;2023-04-19T06:10:43;2.78;;;2.00;;
64063;SDS011;50314;50.618;10.642;2023-04-19T06:13:11;2.55;;;2.30;;
64063;SDS011;50314;50.618;10.642;2023-04-19T06:15:37;2.38;;;2.17;;
64063;SDS011;50314;50.618;10.642;2023-04-19T06:18:04;2.15;;;2.05;;
64063;SDS011;50314;50.618;10.642;2023-04-19T06:20:34;2.60;;;2.28;;
64063;SDS011;50314;50.618;10.642;2023-04-19T06:23:01;2.53;;;2.05;;
64063;SDS011;50314;50.618;10.642;2023-04-19T06:25:26;2.25;;;2.05;;
64063;SDS011;50314;50.618;10.642;2023-04-19T06:27:51;2.30;;;2.10;;
64063;SDS011;50314;50.618;10.642;2023-04-19T06:30:17;2.40;;;2.08;;
64063;SDS011;50314;50.618;10.642;2023-04-19T06:32:42;2.20;;;2.00;;
64063;SDS011;50314;50.618;10.642;2023-04-19T06:35:08;2.60;;;2.25;;
64063;SDS011;50314;50.618;10.642;2023-04-19T06:37:33;2.35;;;2.08;;
64063;SDS011;50314;50.618;10.642;2023-04-19T06:39:59;2.67;;;2.47;;
64063;SDS011;50314;50.618;10.642;2023-04-19T06:42:25;2.33;;;2.10;;
64063;SDS011;50314;50.618;10.642;2023-04-19T06:44:51;2.20;;;2.00;;
64063;SDS011;50314;50.618;10.642;2023-04-19T06:47:17;2.75;;;2.55;;
64063;SDS011;50314;50.618;10.642;2023-04-19T06:49:43;2.63;;;2.42;;
64063;SDS011;50314;50.618;10.642;2023-04-19T06:52:08;2.03;;;1.90;;
64063;SDS011;50314;50.618;10.642;2023-04-19T06:54:34;2.40;;;2.20;;
64063;SDS011;50314;50.618;10.642;2023-04-19T06:56:59;3.10;;;2.40;;
64063;SDS011;50314;50.618;10.642;2023-04-19T06:59:27;2.58;;;2.38;;
64063;SDS011;50314;50.618;10.642;2023-04-19T07:01:52;2.90;;;2.60;;
64063;SDS011;50314;50.618;10.642;2023-04-19T07:04:18;2.55;;;2.10;;
64063;SDS011;50314;50.618;10.642;2023-04-19T07:06:46;2.70;;;2.50;;
64063;SDS011;50314;50.618;10.642;2023-04-19T07:09:12;2.58;;;2.22;;
64063;SDS011;50314;50.618;10.642;2023-04-19T07:11:38;2.22;;;1.80;;
64063;SDS011;50314;50.618;10.642;2023-04-19T07:14:03;3.15;;;2.63;;
64063;SDS011;50314;50.618;10.642;2023-04-19T07:16:29;3.33;;;3.03;;
64063;SDS011;50314;50.618;10.642;2023-04-19T07:18:54;2.90;;;2.35;;
64063;SDS011;50314;50.618;10.642;2023-04-19T07:21:20;3.55;;;3.20;;
64063;SDS011;50314;50.618;10.642;2023-04-19T07:23:45;3.58;;;2.85;;
64063;SDS011;50314;50.618;10.642;2023-04-19T07:26:11;3.38;;;3.00;;
64063;SDS011;50314;50.618;10.642;2023-04-19T07:28:38;3.70;;;3.17;;
64063;SDS011;50314;50.618;10.642;2023-04-19T07:31:04;5.20;;;3.60;;
64063;SDS011;50314;50.618;10.642;2023-04-19T07:33:30;3.22;;;2.90;;
64063;SDS011;50314;50.618;10.642;2023-04-19T07:35:56;4.03;;;3.25;;
64063;SDS011;50314;50.618;10.642;2023-04-19T07:38:21;3.22;;;2.53;;
64063;SDS011;50314;50.618;10.642;2023-04-19T07:40:47;3.17;;;2.88;;
64063;SDS011;50314;50.618;10.642;2023-04-19T07:43:12;3.53;;;2.75;;
64063;SDS011;50314;50.618;10.642;2023-04-19T07:45:38;3.63;;;2.63;;
64063;SDS011;50314;50.618;10.642;2023-04-19T07:48:04;3.97;;;3.40;;
64063;SDS011;50314;50.618;10.642;2023-04-19T07:50:30;3.15;;;2.38;;
64063;SDS011;50314;50.618;10.642;2023-04-19T07:52:55;4.65;;;2.90;;
64063;SDS011;50314;50.618;10.642;2023-04-19T07:55:21;3.40;;;2.58;;
64063;SDS011;50314;50.618;10.642;2023-04-19T07:57:46;4.22;;;2.70;;
64063;SDS011;50314;50.618;10.642;2023-04-19T08:00:16;3.30;;;2.47;;
64063;SDS011;50314;50.618;10.642;2023-04-19T08:02:43;2.40;;;2.17;;
64063;SDS011;50314;50.618;10.642;2023-04-19T08:07:35;3.17;;;2.55;;
64063;SDS011;50314;50.618;10.642;2023-04-19T08:10:00;3.08;;;2.45;;
64063;SDS011;50314;50.618;10.642;2023-04-19T08:12:26;3.70;;;2.60;;
64063;SDS011;50314;50.618;10.642;2023-04-19T08:14:51;3.90;;;2.55;;
64063;SDS011;50314;50.618;10.642;2023-04-19T08:17:17;3.15;;;2.60;;
64063;SDS011;50314;50.618;10.642;2023-04-19T08:19:45;3.53;;;2.90;;
64063;SDS011;50314;50.618;10.642;2023-04-19T08:22:13;5.82;;;2.40;;
64063;SDS011;50314;50.618;10.642;2023-04-19T08:24:40;4.03;;;2.78;;
64063;SDS011;50314;50.618;10.642;2023-04-19T08:27:05;4.32;;;2.72;;
64063;SDS011;50314;50.618;10.642;2023-04-19T08:29:31;4.22;;;2.58;;
64063;SDS011;50314;50.618;10.642;2023-04-19T08:31:57;4.03;;;2.28;;
64063;SDS011;50314;50.618;10.642;2023-04-19T08:34:23;3.63;;;2.72;;
64063;SDS011;50314;50.618;10.642;2023-04-19T08:36:48;2.28;;;1.98;;
64063;SDS011;50314;50.618;10.642;2023-04-19T08:39:14;6.60;;;2.20;;
64063;SDS011;50314;50.618;10.642;2023-04-19T08:41:40;2.17;;;1.75;;
64063;SDS011;50314;50.618;10.642;2023-04-19T08:44:05;2.53;;;1.60;;
64063;SDS011;50314;50.618;10.642;2023-04-19T08:46:31;2.80;;;1.40;;
64063;SDS011;50314;50.618;10.642;2023-04-19T08:48:57;1.88;;;1.60;;
64063;SDS011;50314;50.618;10.642;2023-04-19T08:51:25;1.90;;;1.50;;
64063;SDS011;50314;50.618;10.642;2023-04-19T08:53:51;2.08;;;1.55;;
64063;SDS011;50314;50.618;10.642;2023-04-19T08:56:20;2.03;;;1.48;;
64063;SDS011;50314;50.618;10.642;2023-04-19T08:58:47;2.85;;;1.52;;
64063;SDS011;50314;50.618;10.642;2023-04-19T09:01:12;2.42;;;1.60;;
64063;SDS011;50314;50.618;10.642;2023-04-19T09:03:42;1.45;;;1.30;;
64063;SDS011;50314;50.618;10.642;2023-04-19T09:06:09;1.67;;;1.30;;
64063;SDS011;50314;50.618;10.642;2023-04-19T09:08:36;1.73;;;1.30;;
64063;SDS011;50314;50.618;10.642;2023-04-19T09:11:02;1.88;;;1.30;;
64063;SDS011;50314;50.618;10.642;2023-04-19T09:13:30;4.60;;;2.08;;
64063;SDS011;50314;50.618;10.642;2023-04-19T09:15:56;4.32;;;1.40;;
64063;SDS011;50314;50.618;10.642;2023-04-19T09:18:24;3.30;;;1.58;;
64063;SDS011;50314;50.618;10.642;2023-04-19T09:20:51;3.38;;;1.80;;
64063;SDS011;50314;50.618;10.642;2023-04-19T09:23:23;2.38;;;1.58;;
64063;SDS011;50314;50.618;10.642;2023-04-19T09:25:51;2.35;;;1.58;;
64063;SDS011;50314;50.618;10.642;2023-04-19T09:28:17;4.07;;;2.47;;
64063;SDS011;50314;50.618;10.642;2023-04-19T09:30:42;4.03;;;2.78;;
64063;SDS011;50314;50.618;10.642;2023-04-19T09:33:08;4.25;;;2.35;;
64063;SDS011;50314;50.618;10.642;2023-04-19T09:35:43;2.83;;;1.60;;
64063;SDS011;50314;50.618;10.642;2023-04-19T09:38:12;3.75;;;2.45;;
64063;SDS011;50314;50.618;10.642;2023-04-19T09:40:39;2.78;;;1.92;;
64063;SDS011;50314;50.618;10.642;2023-04-19T09:43:05;2.97;;;1.70;;
64063;SDS011;50314;50.618;10.642;2023-04-19T09:45:41;3.67;;;1.83;;
64063;SDS011;50314;50.618;10.642;2023-04-19T09:48:10;2.03;;;1.38;;
64063;SDS011;50314;50.618;10.642;2023-04-19T09:53:22;2.40;;;1.45;;
64063;SDS011;50314;50.618;10.642;2023-04-19T09:55:50;1.77;;;1.30;;
64063;SDS011;50314;50.618;10.642;2023-04-19T09:58:16;2.60;;;1.73;;
64063;SDS011;50314;50.618;10.642;2023-04-19T10:00:43;3.42;;;1.50;;
64063;SDS011;50314;50.618;10.642;2023-04-19T10:03:12;3.30;;;1.20;;
64063;SDS011;50314;50.618;10.642;2023-04-19T10:05:38;3.35;;;1.92;;
64063;SDS011;50314;50.618;10.642;2023-04-19T10:08:08;3.42;;;1.90;;
64063;SDS011;50314;50.618;10.642;2023-04-19T10:10:35;3.17;;;1.45;;
64063;SDS011;50314;50.618;10.642;2023-04-19T10:13:02;2.78;;;1.45;;
64063;SDS011;50314;50.618;10.642;2023-04-19T10:15:29;3.05;;;1.60;;
64063;SDS011;50314;50.618;10.642;2023-04-19T10:17:56;2.55;;;1.50;;
64063;SDS011;50314;50.618;10.642;2023-04-19T10:20:23;2.30;;;1.52;;
64063;SDS011;50314;50.618;10.642;2023-04-19T10:23:10;2.30;;;1.65;;
64063;SDS011;50314;50.618;10.642;2023-04-19T10:25:36;3.55;;;1.27;;
64063;SDS011;50314;50.618;10.642;2023-04-19T10:28:02;2.80;;;1.60;;
64063;SDS011;50314;50.618;10.642;2023-04-19T10:30:28;2.17;;;1.40;;
64063;SDS011;50314;50.618;10.642;2023-04-19T10:35:22;1.83;;;1.10;;
64063;SDS011;50314;50.618;10.642;2023-04-19T10:38:09;1.52;;;1.27;;
64063;SDS011;50314;50.618;10.642;2023-04-19T10:40:58;2.03;;;1.25;;
64063;SDS011;50314;50.618;10.642;2023-04-19T10:43:28;2.33;;;1.13;;
64063;SDS011;50314;50.618;10.642;2023-04-19T10:46:13;1.98;;;1.00;;
64063;SDS011;50314;50.618;10.642;2023-04-19T10:48:59;1.25;;;1.15;;
64063;SDS011;50314;50.618;10.642;2023-04-19T10:51:26;1.23;;;1.13;;
64063;SDS011;50314;50.618;10.642;2023-04-19T11:04:10;2.00;;;1.40;;
64063;SDS011;50314;50.618;10.642;2023-04-19T11:06:38;1.38;;;1.20;;
64063;SDS011;50314;50.618;10.642;2023-04-19T11:12:09;1.60;;;1.10;;
64063;SDS011;50314;50.618;10.642;2023-04-19T11:17:16;1.30;;;1.00;;
64063;SDS011;50314;50.618;10.642;2023-04-19T11:19:56;1.85;;;1.10;;
64063;SDS011;50314;50.618;10.642;2023-04-19T11:22:23;1.92;;;1.05;;
64063;SDS011;50314;50.618;10.642;2023-04-19T11:24:49;1.45;;;0.90;;
64063;SDS011;50314;50.618;10.642;2023-04-19T11:27:15;1.25;;;1.08;;
64063;SDS011;50314;50.618;10.642;2023-04-19T11:29:40;2.35;;;1.20;;
64063;SDS011;50314;50.618;10.642;2023-04-19T11:32:06;2.15;;;1.17;;
64063;SDS011;50314;50.618;10.642;2023-04-19T11:34:35;1.40;;;1.00;;
64063;SDS011;50314;50.618;10.642;2023-04-19T11:37:02;1.20;;;1.10;;
64063;SDS011;50314;50.618;10.642;2023-04-19T11:39:27;1.60;;;1.20;;
64063;SDS011;50314;50.618;10.642;2023-04-19T11:41:53;1.50;;;1.20;;
64063;SDS011;50314;50.618;10.642;2023-04-19T11:44:18;1.70;;;1.15;;
64063;SDS011;50314;50.618;10.642;2023-04-19T11:47:05;1.33;;;1.20;;
64063;SDS011;50314;50.618;10.642;2023-04-19T11:49:30;1.38;;;1.10;;
64063;SDS011;50314;50.618;10.642;2023-04-19T11:51:58;1.25;;;1.10;;
64063;SDS011;50314;50.618;10.642;2023-04-19T11:54:25;1.45;;;1.17;;
64063;SDS011;50314;50.618;10.642;2023-04-19T11:59:23;1.08;;;0.90;;
64063;SDS011;50314;50.618;10.642;2023-04-19T12:01:48;1.15;;;0.95;;
64063;SDS011;50314;50.618;10.642;2023-04-19T12:04:14;1.00;;;0.90;;
64063;SDS011;50314;50.618;10.642;2023-04-19T12:06:39;2.95;;;1.20;;
64063;SDS011;50314;50.618;10.642;2023-04-19T12:09:06;2.35;;;1.63;;
64063;SDS011;50314;50.618;10.642;2023-04-19T12:11:44;3.55;;;2.08;;
64063;SDS011;50314;50.618;10.642;2023-04-19T12:14:15;3.45;;;1.80;;
64063;SDS011;50314;50.618;10.642;2023-04-19T12:16:43;3.45;;;2.40;;
64063;SDS011;50314;50.618;10.642;2023-04-19T12:19:10;3.05;;;2.10;;
64063;SDS011;50314;50.618;10.642;2023-04-19T12:21:39;3.42;;;1.95;;
64063;SDS011;50314;50.618;10.642;2023-04-19T12:24:05;2.67;;;1.75;;
64063;SDS011;50314;50.618;10.642;2023-04-19T12:26:31;2.00;;;1.80;;
64063;SDS011;50314;50.618;10.642;2023-04-19T12:28:58;3.03;;;1.80;;
64063;SDS011;50314;50.618;10.642;2023-04-19T12:31:25;2.25;;;1.52;;
64063;SDS011;50314;50.618;10.642;2023-04-19T12:33:51;1.77;;;1.40;;
64063;SDS011;50314;50.618;10.642;2023-04-19T12:36:17;2.38;;;1.58;;
64063;SDS011;50314;50.618;10.642;2023-04-19T12:38:42;1.65;;;1.45;;
64063;SDS011;50314;50.618;10.642;2023-04-19T12:41:08;3.30;;;1.25;;
64063;SDS011;50314;50.618;10.642;2023-04-19T12:43:33;2.92;;;1.23;;
64063;SDS011;50314;50.618;10.642;2023-04-19T12:45:59;2.63;;;1.42;;
64063;SDS011;50314;50.618;10.642;2023-04-19T12:48:25;1.45;;;1.35;;
64063;SDS011;50314;50.618;10.642;2023-04-19T12:50:51;2.08;;;1.60;;
64063;SDS011;50314;50.618;10.642;2023-04-19T12:53:17;3.25;;;2.05;;
64063;SDS011;50314;50.618;10.642;2023-04-19T12:55:43;3.53;;;2.10;;
64063;SDS011;50314;50.618;10.642;2023-04-19T12:58:13;3.47;;;2.10;;
64063;SDS011;50314;50.618;10.642;2023-04-19T13:03:05;2.70;;;2.27;;
64063;SDS011;50314;50.618;10.642;2023-04-19T13:05:30;3.63;;;2.28;;
64063;SDS011;50314;50.618;10.642;2023-04-19T13:07:56;2.60;;;2.15;;
64063;SDS011;50314;50.618;10.642;2023-04-19T13:10:21;3.92;;;2.47;;
64063;SDS011;50314;50.618;10.642;2023-04-19T13:12:47;3.30;;;2.03;;
64063;SDS011;50314;50.618;10.642;2023-04-19T13:15:12;3.22;;;2.30;;
64063;SDS011;50314;50.618;10.642;2023-04-19T13:17:38;3.90;;;2.22;;
64063;SDS011;50314;50.618;10.642;2023-04-19T13:20:03;5.28;;;2.47;;
64063;SDS011;50314;50.618;10.642;2023-04-19T13:22:30;3.25;;;2.58;;
64063;SDS011;50314;50.618;10.642;2023-04-19T13:24:56;3.10;;;2.38;;
64063;SDS011;50314;50.618;10.642;2023-04-19T13:27:22;3.88;;;2.30;;
64063;SDS011;50314;50.618;10.642;2023-04-19T13:29:47;3.55;;;2.13;;
64063;SDS011;50314;50.618;10.642;2023-04-19T13:32:13;3.67;;;2.92;;
64063;SDS011;50314;50.618;10.642;2023-04-19T13:34:38;5.05;;;2.25;;
64063;SDS011;50314;50.618;10.642;2023-04-19T13:37:04;2.58;;;2.15;;
64063;SDS011;50314;50.618;10.642;2023-04-19T13:39:30;3.72;;;1.98;;
64063;SDS011;50314;50.618;10.642;2023-04-19T13:41:56;3.08;;;1.95;;
64063;SDS011;50314;50.618;10.642;2023-04-19T13:44:21;2.38;;;1.70;;
64063;SDS011;50314;50.618;10.642;2023-04-19T13:46:49;4.45;;;2.00;;
64063;SDS011;50314;50.618;10.642;2023-04-19T13:49:14;1.90;;;1.40;;
64063;SDS011;50314;50.618;10.642;2023-04-19T13:51:40;1.90;;;1.73;;
64063;SDS011;50314;50.618;10.642;2023-04-19T13:54:06;1.98;;;1.60;;
64063;SDS011;50314;50.618;10.642;2023-04-19T13:56:31;1.75;;;1.50;;
64063;SDS011;50314;50.618;10.642;2023-04-19T13:58:56;2.00;;;1.80;;
64063;SDS011;50314;50.618;10.642;2023-04-19T14:01:22;3.38;;;1.80;;
64063;SDS011;50314;50.618;10.642;2023-04-19T14:03:47;2.78;;;1.88;;
64063;SDS011;50314;50.618;10.642;2023-04-19T14:06:13;1.65;;;1.55;;
64063;SDS011;50314;50.618;10.642;2023-04-19T14:08:38;4.75;;;1.80;;
64063;SDS011;50314;50.618;10.642;2023-04-19T14:11:04;2.05;;;1.80;;
64063;SDS011;50314;50.618;10.642;2023-04-19T14:13:30;3.08;;;1.63;;
64063;SDS011;50314;50.618;10.642;2023-04-19T14:15:55;3.25;;;1.73;;
64063;SDS011;50314;50.618;10.642;2023-04-19T14:18:21;2.78;;;1.35;;
64063;SDS011;50314;50.618;10.642;2023-04-19T14:20:46;1.90;;;1.60;;
64063;SDS011;50314;50.618;10.642;2023-04-19T14:23:12;1.50;;;1.40;;
64063;SDS011;50314;50.618;10.642;2023-04-19T14:25:37;1.90;;;1.70;;
64063;SDS011;50314;50.618;10.642;2023-04-19T14:28:03;1.73;;;1.42;;
64063;SDS011;50314;50.618;10.642;2023-04-19T14:30:28;1.98;;;1.35;;
64063;SDS011;50314;50.618;10.642;2023-04-19T14:32:54;1.95;;;1.52;;
64063;SDS011;50314;50.618;10.642;2023-04-19T14:35:19;1.75;;;1.60;;
64063;SDS011;50314;50.618;10.642;2023-04-19T14:37:45;2.63;;;1.50;;
64063;SDS011;50314;50.618;10.642;2023-04-19T14:40:10;1.95;;;1.52;;
64063;SDS011;50314;50.618;10.642;2023-04-19T14:42:36;2.05;;;1.60;;
64063;SDS011;50314;50.618;10.642;2023-04-19T14:45:01;1.58;;;1.33;;
64063;SDS011;50314;50.618;10.642;2023-04-19T14:47:27;1.30;;;1.20;;
64063;SDS011;50314;50.618;10.642;2023-04-19T14:49:53;2.70;;;0.98;;
64063;SDS011;50314;50.618;10.642;2023-04-19T14:52:18;1.48;;;1.38;;
64063;SDS011;50314;50.618;10.642;2023-04-19T14:54:44;2.13;;;1.70;;
64063;SDS011;50314;50.618;10.642;2023-04-19T14:57:09;2.20;;;1.30;;
64063;SDS011;50314;50.618;10.642;2023-04-19T14:59:36;1.60;;;1.40;;
64063;SDS011;50314;50.618;10.642;2023-04-19T15:02:01;1.67;;;1.40;;